Terminal Aerodrome Forecast
Issued by NWS Newport/Morehead City, NC

Home | Current Version | Previous Version | Text Only | Print | Product List | Glossary On
Versions: 1 2 3 4 5 6 7 8 9 10 11 12
000
FTUS42 KMHX 010500 RRA
TAFEWN
TAF
KEWN 010553Z 0106/0206 08004KT P6SM SCT040 BKN100
     FM011200 06008KT P6SM VCSH SCT025 BKN040
     FM011700 11010KT P6SM VCTS SCT025 BKN035CB=

USA.gov is the U.S. government's official web portal to all federal, state and local government web resources and services.